Time;durP1;ratioP1;P1;durP2;ratioP2;P2;SDS_P1;SDS_P2;PMS_P1;PMS_P2;Temp;Humidity;BMP_temperature;BMP_pressure;BME280_temperature;BME280_humidity;BME280_pressure;Samples;Min_cycle;Max_cycle;Signal;HPM_P1;HPM_P2
2023/07/31 00:02:13;;;;;;;12.75;5.50;;;;;;;;;;5080456;28;21155;-75
2023/07/31 00:04:41;;;;;;;15.68;5.00;;;;;;;;;;5080748;28;20025;-75
2023/07/31 00:07:07;;;;;;;16.25;5.40;;;;;;;;;;5079853;28;20004;-75
2023/07/31 00:09:34;;;;;;;18.58;5.03;;;;;;;;;;5081438;28;20021;-75
2023/07/31 00:12:00;;;;;;;14.00;5.15;;;;;;;;;;5093086;28;20037;-74
2023/07/31 00:14:26;;;;;;;13.95;5.45;;;;;;;;;;5076424;28;20044;-75
2023/07/31 00:16:52;;;;;;;15.88;5.25;;;;;;;;;;5092675;28;20036;-75
2023/07/31 00:19:18;;;;;;;14.70;5.80;;;;;;;;;;5097832;28;20020;-75
2023/07/31 00:21:44;;;;;;;15.77;5.45;;;;;;;;;;5079136;28;20054;-75
2023/07/31 00:24:10;;;;;;;19.60;6.63;;;;;;;;;;5079629;28;20027;-75
2023/07/31 00:26:36;;;;;;;16.15;5.65;;;;;;;;;;5097381;28;20017;-75
2023/07/31 00:29:02;;;;;;;18.58;5.43;;;;;;;;;;5098625;28;20038;-75
2023/07/31 00:31:28;;;;;;;14.45;6.70;;;;;;;;;;5081319;28;20024;-75
2023/07/31 00:33:54;;;;;;;17.85;5.32;;;;;;;;;;5093525;28;20020;-75
2023/07/31 00:36:20;;;;;;;14.70;5.47;;;;;;;;;;5080532;28;20025;-75
2023/07/31 00:38:46;;;;;;;11.63;4.95;;;;;;;;;;5097681;28;20044;-74
2023/07/31 00:41:12;;;;;;;15.52;5.35;;;;;;;;;;5097414;28;20027;-75
2023/07/31 00:43:38;;;;;;;12.80;5.60;;;;;;;;;;5094158;28;20032;-76
2023/07/31 00:46:07;;;;;;;18.02;6.45;;;;;;;;;;5081883;28;20033;-75
2023/07/31 00:48:36;;;;;;;15.32;4.97;;;;;;;;;;5076377;28;20012;-75
2023/07/31 00:51:04;;;;;;;12.90;4.75;;;;;;;;;;5097298;28;20044;-76
2023/07/31 00:53:33;;;;;;;13.45;4.88;;;;;;;;;;5096912;28;20017;-76
2023/07/31 00:55:59;;;;;;;12.60;4.93;;;;;;;;;;5079382;28;20032;-75
2023/07/31 00:58:25;;;;;;;19.23;4.85;;;;;;;;;;5080132;28;20091;-76
2023/07/31 01:00:57;;;;;;;8.73;4.25;;;;;;;;;;5076695;28;20016;-77
2023/07/31 01:03:25;;;;;;;10.13;4.03;;;;;;;;;;5093021;28;20029;-75
2023/07/31 01:05:54;;;;;;;9.90;3.95;;;;;;;;;;5095125;28;20024;-76
2023/07/31 01:08:50;;;;;;;13.85;3.60;;;;;;;;;;5098181;28;20036;-76
2023/07/31 01:11:22;;;;;;;10.95;3.55;;;;;;;;;;5079917;28;20071;-76
2023/07/31 01:13:48;;;;;;;8.73;3.78;;;;;;;;;;5075781;28;20021;-76
2023/07/31 01:16:14;;;;;;;10.52;4.68;;;;;;;;;;5095281;28;20047;-75
2023/07/31 01:18:40;;;;;;;11.48;3.63;;;;;;;;;;5079748;28;20016;-75
2023/07/31 01:21:16;;;;;;;9.20;3.88;;;;;;;;;;5075157;28;20021;-75
2023/07/31 01:24:01;;;;;;;12.27;4.00;;;;;;;;;;5091820;28;20054;-75
2023/07/31 01:26:30;;;;;;;6.00;3.28;;;;;;;;;;5078356;28;20020;-76
2023/07/31 01:29:15;;;;;;;8.73;3.65;;;;;;;;;;5078895;28;20043;-76
2023/07/31 01:31:41;;;;;;;12.25;3.90;;;;;;;;;;5080399;28;20087;-75
2023/07/31 01:34:09;;;;;;;10.15;3.60;;;;;;;;;;5075568;28;20024;-76
2023/07/31 01:36:35;;;;;;;9.93;3.88;;;;;;;;;;5095795;28;20050;-75
2023/07/31 01:39:02;;;;;;;10.07;3.63;;;;;;;;;;5074762;28;20028;-76
2023/07/31 01:41:28;;;;;;;7.65;3.00;;;;;;;;;;5091520;28;20017;-76
2023/07/31 01:43:54;;;;;;;11.82;3.45;;;;;;;;;;5096579;28;20013;-76
2023/07/31 01:46:24;;;;;;;9.65;3.72;;;;;;;;;;5095762;28;20050;-75
2023/07/31 01:48:51;;;;;;;10.38;3.55;;;;;;;;;;5080911;28;20020;-76
2023/07/31 01:51:17;;;;;;;9.60;3.50;;;;;;;;;;5096376;28;20039;-75
2023/07/31 01:53:45;;;;;;;10.68;3.55;;;;;;;;;;5096186;28;20017;-75
2023/07/31 01:56:11;;;;;;;5.03;2.60;;;;;;;;;;5091374;28;20080;-76
2023/07/31 01:58:40;;;;;;;8.60;3.35;;;;;;;;;;5079511;28;20094;-76
2023/07/31 02:01:06;;;;;;;10.70;4.18;;;;;;;;;;5077473;28;20089;-76
2023/07/31 02:03:32;;;;;;;9.90;2.63;;;;;;;;;;5094572;28;20087;-76
2023/07/31 02:05:57;;;;;;;4.72;2.47;;;;;;;;;;5095095;28;20009;-77
2023/07/31 02:08:23;;;;;;;8.90;2.90;;;;;;;;;;5077501;28;20021;-77
2023/07/31 02:10:49;;;;;;;9.23;3.25;;;;;;;;;;5077712;28;20024;-76
2023/07/31 02:13:15;;;;;;;9.10;3.38;;;;;;;;;;5096514;28;20024;-76
2023/07/31 02:15:41;;;;;;;7.40;3.10;;;;;;;;;;5091997;28;20096;-76
2023/07/31 02:18:07;;;;;;;8.30;3.25;;;;;;;;;;5091185;28;20009;-76
2023/07/31 02:20:35;;;;;;;9.18;3.63;;;;;;;;;;5097107;28;20035;-76
2023/07/31 02:23:01;;;;;;;7.47;3.13;;;;;;;;;;5091409;28;20023;-76
2023/07/31 02:25:27;;;;;;;6.50;2.92;;;;;;;;;;5074056;28;20032;-76
2023/07/31 02:27:53;;;;;;;5.40;2.75;;;;;;;;;;5077765;28;20034;-77
2023/07/31 02:30:21;;;;;;;9.23;3.15;;;;;;;;;;5095298;28;20021;-76
2023/07/31 02:32:51;;;;;;;8.85;3.50;;;;;;;;;;5075026;28;20029;-76
2023/07/31 02:35:18;;;;;;;7.15;3.08;;;;;;;;;;5077962;28;20103;-76
2023/07/31 02:37:44;;;;;;;10.95;3.40;;;;;;;;;;5094984;28;20017;-75
2023/07/31 02:40:10;;;;;;;8.55;3.05;;;;;;;;;;5077052;28;20024;-76
2023/07/31 02:42:36;;;;;;;15.30;3.97;;;;;;;;;;5090437;28;21259;-76
2023/07/31 02:45:02;;;;;;;10.55;2.65;;;;;;;;;;5091651;28;20039;-76
2023/07/31 02:47:30;;;;;;;8.27;3.50;;;;;;;;;;5074430;28;20262;-77
2023/07/31 02:49:56;;;;;;;6.82;3.00;;;;;;;;;;5097345;28;20016;-77
2023/07/31 02:52:22;;;;;;;7.45;3.90;;;;;;;;;;5095788;28;20147;-76
2023/07/31 02:54:48;;;;;;;14.00;3.40;;;;;;;;;;5075057;28;20470;-76
2023/07/31 02:57:16;;;;;;;12.18;3.50;;;;;;;;;;5074518;28;20020;-76
2023/07/31 02:59:42;;;;;;;6.53;2.83;;;;;;;;;;5095450;28;20058;-76
2023/07/31 03:02:12;;;;;;;8.43;3.72;;;;;;;;;;5077348;28;20021;-75
2023/07/31 03:04:39;;;;;;;14.82;3.92;;;;;;;;;;5077361;28;20043;-76
2023/07/31 03:07:10;;;;;;;7.85;3.63;;;;;;;;;;5077641;28;20091;-76
2023/07/31 03:09:36;;;;;;;7.28;3.45;;;;;;;;;;5077686;28;20013;-76
2023/07/31 03:12:03;;;;;;;9.73;3.53;;;;;;;;;;5094200;28;20049;-76
2023/07/31 03:14:29;;;;;;;7.75;3.25;;;;;;;;;;5090955;28;20019;-76
2023/07/31 03:16:55;;;;;;;8.50;3.17;;;;;;;;;;5077627;28;20044;-77
2023/07/31 03:19:21;;;;;;;8.25;3.28;;;;;;;;;;5079062;28;20009;-76
2023/07/31 03:21:47;;;;;;;8.85;3.28;;;;;;;;;;5079845;28;20252;-76
2023/07/31 03:24:15;;;;;;;9.63;3.58;;;;;;;;;;5077761;28;20108;-76
2023/07/31 03:26:41;;;;;;;9.38;3.25;;;;;;;;;;5076403;28;20093;-76
2023/07/31 03:29:07;;;;;;;11.10;3.25;;;;;;;;;;5078540;28;20013;-76
2023/07/31 03:31:34;;;;;;;12.90;3.55;;;;;;;;;;5095854;28;20086;-76
2023/07/31 03:33:59;;;;;;;10.93;3.28;;;;;;;;;;5095730;28;20037;-75
2023/07/31 03:36:28;;;;;;;7.70;3.10;;;;;;;;;;5076351;28;20080;-76
2023/07/31 03:38:56;;;;;;;8.13;3.25;;;;;;;;;;5091220;28;20028;-75
2023/07/31 03:41:22;;;;;;;11.35;3.67;;;;;;;;;;5095586;28;20028;-76
2023/07/31 03:43:51;;;;;;;13.38;4.15;;;;;;;;;;5074632;28;20051;-76
2023/07/31 03:46:17;;;;;;;8.75;3.55;;;;;;;;;;5090978;28;20036;-75
2023/07/31 03:48:43;;;;;;;11.82;3.90;;;;;;;;;;5077017;28;20021;-76
2023/07/31 03:51:09;;;;;;;6.55;3.58;;;;;;;;;;5077677;28;20059;-75
2023/07/31 03:53:35;;;;;;;14.57;3.95;;;;;;;;;;5094219;28;20024;-76
2023/07/31 03:56:01;;;;;;;9.13;3.85;;;;;;;;;;5080974;28;20092;-75
2023/07/31 03:58:27;;;;;;;8.90;3.90;;;;;;;;;;5098189;28;20024;-74
2023/07/31 04:00:54;;;;;;;7.38;3.47;;;;;;;;;;5100138;28;20029;-76
2023/07/31 04:03:20;;;;;;;8.05;3.60;;;;;;;;;;5097794;28;20020;-76
2023/07/31 04:05:46;;;;;;;13.73;5.07;;;;;;;;;;5080223;28;20016;-76
2023/07/31 04:08:14;;;;;;;13.48;4.35;;;;;;;;;;5082324;28;20043;-76
2023/07/31 04:10:40;;;;;;;9.27;4.70;;;;;;;;;;5097809;28;20033;-76
2023/07/31 04:13:06;;;;;;;12.98;5.00;;;;;;;;;;5081354;28;20013;-76
2023/07/31 04:15:32;;;;;;;9.43;4.25;;;;;;;;;;5082253;28;20032;-76
2023/07/31 04:17:58;;;;;;;14.05;5.05;;;;;;;;;;5081080;28;20024;-76
2023/07/31 04:20:24;;;;;;;13.05;5.07;;;;;;;;;;5081591;28;20039;-75
2023/07/31 04:22:50;;;;;;;9.88;5.10;;;;;;;;;;5098707;28;20024;-76
2023/07/31 04:25:16;;;;;;;8.82;4.78;;;;;;;;;;5098484;28;20111;-76
2023/07/31 04:27:44;;;;;;;11.52;5.57;;;;;;;;;;5098010;28;20036;-76
2023/07/31 04:30:10;;;;;;;15.35;4.75;;;;;;;;;;5080049;28;20012;-76
2023/07/31 04:32:36;;;;;;;8.20;4.65;;;;;;;;;;5098038;28;20028;-76
2023/07/31 04:35:03;;;;;;;13.55;4.50;;;;;;;;;;5097741;28;20024;-76
2023/07/31 04:37:31;;;;;;;11.48;4.50;;;;;;;;;;5081836;28;20056;-76
2023/07/31 04:39:58;;;;;;;9.15;4.22;;;;;;;;;;5078783;28;20054;-76
2023/07/31 04:42:24;;;;;;;12.60;4.53;;;;;;;;;;5098811;28;20025;-76
2023/07/31 04:44:52;;;;;;;12.35;4.72;;;;;;;;;;5081228;28;20028;-76
2023/07/31 04:47:21;;;;;;;11.57;4.60;;;;;;;;;;5092783;28;20031;-76
2023/07/31 04:49:47;;;;;;;13.65;4.72;;;;;;;;;;5098417;28;20035;-77
2023/07/31 04:52:13;;;;;;;10.18;4.60;;;;;;;;;;5077133;28;20040;-76
2023/07/31 04:54:39;;;;;;;11.50;4.65;;;;;;;;;;5079562;28;20027;-76
2023/07/31 04:57:06;;;;;;;9.15;4.15;;;;;;;;;;5093019;28;20020;-76
2023/07/31 04:59:32;;;;;;;10.48;4.18;;;;;;;;;;5095623;28;20032;-76
2023/07/31 05:01:58;;;;;;;9.95;4.93;;;;;;;;;;5079762;28;20020;-76
2023/07/31 05:04:24;;;;;;;8.05;4.07;;;;;;;;;;5079019;28;20043;-76
2023/07/31 05:06:50;;;;;;;7.28;3.88;;;;;;;;;;5091613;28;20063;-76
2023/07/31 05:09:16;;;;;;;7.72;3.85;;;;;;;;;;5096726;28;20138;-76
2023/07/31 05:11:42;;;;;;;7.50;3.85;;;;;;;;;;5093914;28;20036;-76
2023/07/31 05:14:09;;;;;;;6.95;4.15;;;;;;;;;;5080323;28;20016;-76
2023/07/31 05:16:34;;;;;;;14.02;3.53;;;;;;;;;;5076217;28;20032;-76
2023/07/31 05:19:00;;;;;;;9.90;4.18;;;;;;;;;;5093540;28;20041;-77
2023/07/31 05:21:26;;;;;;;7.50;3.50;;;;;;;;;;5093159;28;20012;-77
2023/07/31 05:23:53;;;;;;;5.88;3.83;;;;;;;;;;5092154;28;20037;-76
2023/07/31 05:26:19;;;;;;;5.97;3.70;;;;;;;;;;5085074;28;20024;-77
2023/07/31 05:28:45;;;;;;;11.48;3.47;;;;;;;;;;5076654;28;20082;-78
2023/07/31 05:31:11;;;;;;;9.90;3.72;;;;;;;;;;5071723;28;20032;-80
2023/07/31 05:33:37;;;;;;;7.65;3.42;;;;;;;;;;5075705;28;20064;-77
2023/07/31 05:36:03;;;;;;;8.55;3.97;;;;;;;;;;5076832;28;20037;-77
2023/07/31 05:38:29;;;;;;;8.93;3.50;;;;;;;;;;5077257;28;20012;-77
2023/07/31 05:40:58;;;;;;;10.50;3.92;;;;;;;;;;5093420;28;20017;-76
2023/07/31 05:43:24;;;;;;;9.07;3.78;;;;;;;;;;5076959;28;20036;-76
2023/07/31 05:45:50;;;;;;;10.30;3.90;;;;;;;;;;5092965;28;20046;-76
2023/07/31 05:48:16;;;;;;;8.55;3.63;;;;;;;;;;5091669;28;20044;-77
2023/07/31 05:50:44;;;;;;;5.75;3.45;;;;;;;;;;5093827;28;20028;-77
2023/07/31 05:53:11;;;;;;;11.02;3.40;;;;;;;;;;5082964;28;20012;-76
2023/07/31 05:55:37;;;;;;;7.65;3.53;;;;;;;;;;5077905;28;20050;-77
2023/07/31 05:58:03;;;;;;;8.25;4.10;;;;;;;;;;5074927;28;20025;-77
2023/07/31 06:00:29;;;;;;;9.13;3.78;;;;;;;;;;5094006;28;20078;-77
2023/07/31 06:02:55;;;;;;;7.95;3.88;;;;;;;;;;5077185;28;20036;-77
2023/07/31 06:05:21;;;;;;;11.98;4.18;;;;;;;;;;5095539;28;20029;-77
2023/07/31 06:07:47;;;;;;;13.05;3.95;;;;;;;;;;5072193;28;20028;-76
2023/07/31 06:10:13;;;;;;;9.75;4.65;;;;;;;;;;5096075;28;20025;-76
2023/07/31 06:12:41;;;;;;;10.43;4.97;;;;;;;;;;5097888;28;20012;-76
2023/07/31 06:15:07;;;;;;;7.97;4.18;;;;;;;;;;5074998;28;20024;-76
2023/07/31 06:17:33;;;;;;;8.35;4.07;;;;;;;;;;5075602;28;20241;-76
2023/07/31 06:20:05;;;;;;;7.07;4.22;;;;;;;;;;5075886;28;20013;-76
2023/07/31 06:22:33;;;;;;;8.50;4.13;;;;;;;;;;5077413;28;20050;-76
2023/07/31 06:24:59;;;;;;;8.43;5.07;;;;;;;;;;5096568;28;20024;-76
2023/07/31 06:27:25;;;;;;;11.90;4.72;;;;;;;;;;5096411;28;20025;-76
2023/07/31 06:29:51;;;;;;;12.45;4.95;;;;;;;;;;5095958;28;20009;-77
2023/07/31 06:32:17;;;;;;;10.30;5.07;;;;;;;;;;5078377;28;20033;-77
2023/07/31 06:34:43;;;;;;;10.10;4.22;;;;;;;;;;5097569;28;20037;-77
2023/07/31 06:37:09;;;;;;;8.50;4.82;;;;;;;;;;5084004;28;20035;-76
2023/07/31 06:39:35;;;;;;;9.82;4.40;;;;;;;;;;5095285;28;20044;-77
2023/07/31 06:42:01;;;;;;;10.40;5.00;;;;;;;;;;5095069;28;20100;-76
2023/07/31 06:44:27;;;;;;;13.68;5.18;;;;;;;;;;5077245;28;20089;-76
2023/07/31 06:46:55;;;;;;;12.15;5.93;;;;;;;;;;5076144;28;20072;-77
2023/07/31 06:49:21;;;;;;;12.60;5.18;;;;;;;;;;5079322;28;20020;-76
2023/07/31 06:51:47;;;;;;;14.73;5.78;;;;;;;;;;5079291;28;20222;-77
2023/07/31 06:54:13;;;;;;;10.95;4.90;;;;;;;;;;5082843;28;20021;-77
2023/07/31 06:56:39;;;;;;;11.60;5.10;;;;;;;;;;5096335;28;20020;-77
2023/07/31 06:59:05;;;;;;;11.48;4.95;;;;;;;;;;5090128;28;20017;-77
2023/07/31 07:01:33;;;;;;;10.68;4.70;;;;;;;;;;5078815;28;20047;-76
2023/07/31 07:03:59;;;;;;;12.75;4.93;;;;;;;;;;5078494;28;20013;-77
2023/07/31 07:06:25;;;;;;;8.35;4.68;;;;;;;;;;5096933;28;20044;-76
2023/07/31 07:08:51;;;;;;;8.52;4.82;;;;;;;;;;5075358;28;20043;-76
2023/07/31 07:11:17;;;;;;;11.38;4.97;;;;;;;;;;5092225;28;20119;-78
2023/07/31 07:13:43;;;;;;;12.27;4.25;;;;;;;;;;5070303;28;20036;-80
2023/07/31 07:16:10;;;;;;;15.15;4.00;;;;;;;;;;5073206;28;20024;-78
2023/07/31 07:18:41;;;;;;;10.05;4.70;;;;;;;;;;5080177;28;20037;-84
2023/07/31 07:21:07;;;;;;;10.20;4.63;;;;;;;;;;5064201;28;20098;-84
2023/07/31 07:23:33;;;;;;;8.93;4.38;;;;;;;;;;5085330;28;20573;-80
2023/07/31 07:25:59;;;;;;;11.60;5.25;;;;;;;;;;5060972;28;20025;-83
2023/07/31 07:28:28;;;;;;;11.80;5.22;;;;;;;;;;5078826;28;20031;-78
2023/07/31 07:30:57;;;;;;;10.93;5.20;;;;;;;;;;5065277;28;20712;-86
2023/07/31 07:33:26;;;;;;;14.80;5.97;;;;;;;;;;5068910;28;20460;-81
2023/07/31 07:35:52;;;;;;;11.32;4.05;;;;;;;;;;5084437;28;20044;-83
2023/07/31 07:38:19;;;;;;;14.18;5.00;;;;;;;;;;5075304;28;20040;-76
2023/07/31 07:40:46;;;;;;;11.88;5.10;;;;;;;;;;5077876;28;20076;-76
2023/07/31 07:43:12;;;;;;;9.10;4.13;;;;;;;;;;5094699;28;20036;-76
2023/07/31 07:45:38;;;;;;;12.95;4.63;;;;;;;;;;5082253;28;20027;-76
2023/07/31 07:48:07;;;;;;;9.70;4.82;;;;;;;;;;5094437;28;20032;-76
2023/07/31 07:50:33;;;;;;;10.07;3.95;;;;;;;;;;5099172;28;20041;-75
2023/07/31 07:52:59;;;;;;;11.88;5.10;;;;;;;;;;5098204;28;20017;-76
2023/07/31 07:55:25;;;;;;;9.70;5.10;;;;;;;;;;5097435;28;20028;-75
2023/07/31 07:57:51;;;;;;;15.43;4.75;;;;;;;;;;5077318;28;20116;-75
2023/07/31 08:00:17;;;;;;;11.23;4.25;;;;;;;;;;5099539;28;20074;-75
2023/07/31 08:02:48;;;;;;;7.63;3.50;;;;;;;;;;5080578;28;20040;-75
2023/07/31 08:05:17;;;;;;;7.60;4.28;;;;;;;;;;5097508;28;20021;-75
2023/07/31 08:07:43;;;;;;;11.45;4.20;;;;;;;;;;5097762;28;20016;-75
2023/07/31 08:10:09;;;;;;;10.13;4.35;;;;;;;;;;5079883;28;20036;-76
2023/07/31 08:12:35;;;;;;;10.30;4.18;;;;;;;;;;5099407;28;20076;-75
2023/07/31 08:15:01;;;;;;;9.52;4.43;;;;;;;;;;5093884;28;20025;-76
2023/07/31 08:17:27;;;;;;;10.50;4.25;;;;;;;;;;5092900;28;20042;-75
2023/07/31 08:19:53;;;;;;;7.55;4.20;;;;;;;;;;5098847;28;20235;-76
2023/07/31 08:22:19;;;;;;;8.93;4.32;;;;;;;;;;5080492;28;20021;-76
2023/07/31 08:24:47;;;;;;;13.63;4.05;;;;;;;;;;5092870;28;21267;-76
2023/07/31 08:27:13;;;;;;;14.75;4.78;;;;;;;;;;5093761;28;20017;-76
2023/07/31 08:29:39;;;;;;;10.13;4.25;;;;;;;;;;5097793;28;20047;-75
2023/07/31 08:32:08;;;;;;;13.00;4.70;;;;;;;;;;5096577;28;20044;-76
2023/07/31 08:34:34;;;;;;;11.68;4.75;;;;;;;;;;5081421;28;20036;-76
2023/07/31 08:37:00;;;;;;;12.57;4.85;;;;;;;;;;5094928;28;20029;-76
2023/07/31 08:39:26;;;;;;;11.73;5.30;;;;;;;;;;5095703;28;20054;-75
2023/07/31 08:42:00;;;;;;;6.72;3.50;;;;;;;;;;5098139;28;20028;-76
2023/07/31 08:44:28;;;;;;;8.55;4.07;;;;;;;;;;5098594;28;20020;-76
2023/07/31 08:46:55;;;;;;;6.95;4.05;;;;;;;;;;5097700;28;20020;-76
2023/07/31 08:49:22;;;;;;;7.20;4.40;;;;;;;;;;5080942;28;20087;-76
2023/07/31 08:51:50;;;;;;;8.02;4.18;;;;;;;;;;5097281;28;20036;-76
2023/07/31 08:54:16;;;;;;;8.98;4.50;;;;;;;;;;5080707;28;20013;-75
2023/07/31 08:56:42;;;;;;;8.77;3.95;;;;;;;;;;5080487;28;20036;-76
2023/07/31 08:59:11;;;;;;;7.78;3.10;;;;;;;;;;5085227;28;20009;-76
2023/07/31 09:01:40;;;;;;;6.55;3.25;;;;;;;;;;5092498;28;20036;-81
2023/07/31 09:04:06;;;;;;;9.90;3.63;;;;;;;;;;5090682;28;20495;-78
2023/07/31 09:06:32;;;;;;;7.75;2.45;;;;;;;;;;5076177;28;20032;-83
2023/07/31 09:08:58;;;;;;;8.48;3.25;;;;;;;;;;5064406;28;20040;-79
2023/07/31 09:11:25;;;;;;;5.15;2.35;;;;;;;;;;5089702;28;20036;-76
2023/07/31 09:13:52;;;;;;;10.77;3.28;;;;;;;;;;5094259;28;20019;-75
2023/07/31 09:16:18;;;;;;;9.93;3.10;;;;;;;;;;5092886;28;20023;-75
2023/07/31 09:18:57;;;;;;;5.63;2.80;;;;;;;;;;5079655;28;20037;-75
2023/07/31 09:21:23;;;;;;;7.95;2.97;;;;;;;;;;5097563;28;20096;-76
2023/07/31 09:23:54;;;;;;;4.97;2.75;;;;;;;;;;5097876;28;20024;-76
2023/07/31 09:26:36;;;;;;;7.13;3.17;;;;;;;;;;5078818;28;20086;-76
2023/07/31 09:29:05;;;;;;;7.47;2.88;;;;;;;;;;5097739;28;20028;-76
2023/07/31 09:31:39;;;;;;;6.78;3.15;;;;;;;;;;5094595;28;20024;-77
2023/07/31 09:34:05;;;;;;;7.43;3.35;;;;;;;;;;5086811;28;20040;-87
2023/07/31 09:36:39;;;;;;;6.75;2.83;;;;;;;;;;5063104;28;20039;-85
2023/07/31 09:39:05;;;;;;;8.13;2.75;;;;;;;;;;5073882;28;20040;-85
2023/07/31 09:41:31;;;;;;;4.63;2.97;;;;;;;;;;5056251;28;20036;-88
2023/07/31 09:43:58;;;;;;;7.93;2.95;;;;;;;;;;5052347;28;20861;-84
2023/07/31 09:46:27;;;;;;;4.63;2.55;;;;;;;;;;5053403;28;20036;-90
2023/07/31 09:48:53;;;;;;;4.80;2.55;;;;;;;;;;5073758;28;20028;-90
2023/07/31 09:51:27;;;;;;;5.13;2.75;;;;;;;;;;5069496;28;20467;-89
2023/07/31 09:53:53;;;;;;;6.32;2.70;;;;;;;;;;5056589;28;20060;-88
2023/07/31 09:56:24;;;;;;;6.50;2.45;;;;;;;;;;5051846;28;20641;-85
2023/07/31 09:58:53;;;;;;;4.00;2.40;;;;;;;;;;5052509;28;20020;-87
2023/07/31 10:01:21;;;;;;;6.22;3.05;;;;;;;;;;5069085;28;20170;-86
2023/07/31 10:03:47;;;;;;;7.05;2.55;;;;;;;;;;5051593;28;20115;-89
2023/07/31 10:06:18;;;;;;;7.30;2.42;;;;;;;;;;5075451;28;20040;-91
2023/07/31 10:08:46;;;;;;;5.60;2.10;;;;;;;;;;5069500;28;20043;-85
2023/07/31 10:11:14;;;;;;;5.43;2.38;;;;;;;;;;5055457;28;20033;-87
2023/07/31 10:13:40;;;;;;;5.57;2.53;;;;;;;;;;5059653;28;21645;-91
2023/07/31 10:16:06;;;;;;;4.20;2.10;;;;;;;;;;5053096;28;20054;-86
2023/07/31 10:18:35;;;;;;;4.88;2.03;;;;;;;;;;5071372;28;20111;-89
2023/07/31 10:21:01;;;;;;;4.30;2.22;;;;;;;;;;5052393;28;20166;-91
2023/07/31 10:23:27;;;;;;;4.47;2.30;;;;;;;;;;5072467;28;20036;-85
2023/07/31 10:25:54;;;;;;;6.50;2.30;;;;;;;;;;5070933;28;20066;-85
2023/07/31 10:28:21;;;;;;;4.18;2.20;;;;;;;;;;5051603;28;20044;-85
2023/07/31 10:30:47;;;;;;;7.35;2.25;;;;;;;;;;5068237;28;20105;-86
2023/07/31 10:33:13;;;;;;;5.57;2.20;;;;;;;;;;5072548;28;20028;-90
2023/07/31 10:35:39;;;;;;;5.57;1.92;;;;;;;;;;5074242;28;20126;-86
2023/07/31 10:38:12;;;;;;;5.25;2.58;;;;;;;;;;5053447;28;20032;-88
2023/07/31 10:40:40;;;;;;;3.17;2.30;;;;;;;;;;5069758;28;20826;-87
2023/07/31 10:43:08;;;;;;;3.28;1.80;;;;;;;;;;5052384;28;20040;-86
2023/07/31 10:45:37;;;;;;;3.97;2.20;;;;;;;;;;5068882;28;20047;-85
2023/07/31 10:48:03;;;;;;;2.85;1.67;;;;;;;;;;5054871;28;20047;-87
2023/07/31 10:50:32;;;;;;;3.15;1.75;;;;;;;;;;5052556;28;20144;-89
2023/07/31 10:52:58;;;;;;;4.53;2.03;;;;;;;;;;5073578;28;20020;-87
2023/07/31 10:55:30;;;;;;;3.63;1.60;;;;;;;;;;5053940;28;20028;-86
2023/07/31 10:57:57;;;;;;;6.70;2.05;;;;;;;;;;5051144;28;20029;-89
2023/07/31 11:00:26;;;;;;;3.38;1.63;;;;;;;;;;5051066;28;20040;-90
2023/07/31 11:03:00;;;;;;;2.92;1.25;;;;;;;;;;5065348;28;20025;-77
2023/07/31 11:05:42;;;;;;;3.42;1.60;;;;;;;;;;5078825;28;20047;-76
2023/07/31 11:08:19;;;;;;;3.78;1.60;;;;;;;;;;5101236;28;20016;-76
2023/07/31 11:10:45;;;;;;;3.80;1.50;;;;;;;;;;5080804;28;20041;-75
2023/07/31 11:13:12;;;;;;;3.45;1.80;;;;;;;;;;5100569;28;20020;-75
2023/07/31 11:15:38;;;;;;;2.90;1.30;;;;;;;;;;5082080;28;20079;-76
2023/07/31 11:18:05;;;;;;;4.85;1.80;;;;;;;;;;5095184;28;20033;-83
2023/07/31 11:20:31;;;;;;;4.80;1.50;;;;;;;;;;5082564;28;20012;-83
2023/07/31 11:23:06;;;;;;;1.58;1.00;;;;;;;;;;5079031;28;20043;-85
2023/07/31 11:25:32;;;;;;;1.40;0.75;;;;;;;;;;5061968;28;20112;-83
2023/07/31 11:28:02;;;;;;;1.83;0.98;;;;;;;;;;5059664;28;20107;-85
2023/07/31 11:30:28;;;;;;;1.73;0.60;;;;;;;;;;5074518;28;20146;-88
2023/07/31 11:32:55;;;;;;;1.77;0.80;;;;;;;;;;5074580;28;20147;-87
2023/07/31 11:35:22;;;;;;;2.00;0.73;;;;;;;;;;5054882;28;20043;-89
2023/07/31 11:37:48;;;;;;;0.60;0.40;;;;;;;;;;5056525;28;20024;-85
2023/07/31 11:40:14;;;;;;;3.42;0.90;;;;;;;;;;5075308;28;20028;-89
2023/07/31 11:42:41;;;;;;;2.70;0.85;;;;;;;;;;5074055;28;20067;-90
2023/07/31 11:45:10;;;;;;;1.15;0.50;;;;;;;;;;5074230;28;20039;-89
2023/07/31 11:47:37;;;;;;;1.27;0.40;;;;;;;;;;5074502;28;20182;-82
2023/07/31 11:50:11;;;;;;;1.85;0.88;;;;;;;;;;5071778;28;20035;-85
2023/07/31 11:52:40;;;;;;;4.80;0.70;;;;;;;;;;5053801;28;20024;-87
2023/07/31 11:55:09;;;;;;;0.82;0.70;;;;;;;;;;5074547;28;20029;-86
2023/07/31 11:57:35;;;;;;;0.82;0.47;;;;;;;;;;5074541;28;20055;-91
2023/07/31 12:00:02;;;;;;;1.27;0.55;;;;;;;;;;5072704;28;20035;-88
2023/07/31 12:02:28;;;;;;;0.82;0.50;;;;;;;;;;5070881;28;20425;-87
2023/07/31 12:04:54;;;;;;;1.13;0.45;;;;;;;;;;5074059;28;20037;-88
2023/07/31 12:07:20;;;;;;;1.42;0.70;;;;;;;;;;5069784;28;20043;-89
2023/07/31 12:09:56;;;;;;;1.00;0.77;;;;;;;;;;5056267;28;20032;-86
2023/07/31 12:12:22;;;;;;;1.63;1.10;;;;;;;;;;5072062;28;20030;-89
2023/07/31 12:14:50;;;;;;;1.55;0.70;;;;;;;;;;5074334;28;20445;-88
2023/07/31 12:17:16;;;;;;;1.50;0.65;;;;;;;;;;5071839;28;20028;-86
2023/07/31 12:19:45;;;;;;;0.68;0.60;;;;;;;;;;5073731;28;20045;-86
2023/07/31 12:22:14;;;;;;;4.20;0.60;;;;;;;;;;5073796;28;20024;-88
2023/07/31 12:24:46;;;;;;;1.50;0.60;;;;;;;;;;5074535;28;20115;-84
2023/07/31 12:27:12;;;;;;;4.18;0.98;;;;;;;;;;5052283;28;20123;-89
2023/07/31 12:29:39;;;;;;;1.38;1.00;;;;;;;;;;5073051;28;20044;-87
2023/07/31 12:32:18;;;;;;;2.67;1.13;;;;;;;;;;5069931;28;20085;-87
2023/07/31 12:34:44;;;;;;;2.15;1.40;;;;;;;;;;5057755;28;20112;-83
2023/07/31 12:37:10;;;;;;;1.30;1.10;;;;;;;;;;5057552;28;20543;-86
2023/07/31 12:39:36;;;;;;;1.92;1.35;;;;;;;;;;5075139;28;20091;-89
2023/07/31 12:42:02;;;;;;;3.00;1.50;;;;;;;;;;5056322;28;20042;-88
2023/07/31 12:44:28;;;;;;;1.92;1.27;;;;;;;;;;5073742;28;20490;-90
2023/07/31 12:46:56;;;;;;;2.70;1.40;;;;;;;;;;5062081;28;20036;-90
2023/07/31 12:49:23;;;;;;;3.08;1.48;;;;;;;;;;5053027;28;20111;-91
2023/07/31 12:51:49;;;;;;;2.10;1.40;;;;;;;;;;5057790;28;20028;-88
2023/07/31 12:54:15;;;;;;;2.13;1.50;;;;;;;;;;5055757;28;20114;-87
2023/07/31 12:56:41;;;;;;;1.80;1.10;;;;;;;;;;5055936;28;20167;-92
2023/07/31 12:59:07;;;;;;;3.75;1.63;;;;;;;;;;5055890;28;20021;-91
2023/07/31 13:01:33;;;;;;;1.95;1.42;;;;;;;;;;5069722;28;20032;-87
2023/07/31 13:03:59;;;;;;;2.22;1.23;;;;;;;;;;5055533;28;20029;-92
2023/07/31 13:06:25;;;;;;;3.80;1.95;;;;;;;;;;5074923;28;20471;-89
2023/07/31 13:08:54;;;;;;;5.75;2.03;;;;;;;;;;5068525;28;20032;-83
2023/07/31 13:11:20;;;;;;;4.35;1.88;;;;;;;;;;5054061;28;20028;-89
2023/07/31 13:13:46;;;;;;;3.15;1.75;;;;;;;;;;5051742;28;20020;-92
2023/07/31 13:16:12;;;;;;;2.22;1.60;;;;;;;;;;5052409;28;20039;-91
2023/07/31 13:18:38;;;;;;;4.03;2.03;;;;;;;;;;5056846;28;20078;-90
2023/07/31 13:21:04;;;;;;;2.75;1.67;;;;;;;;;;5055499;28;20364;-87
2023/07/31 13:23:30;;;;;;;2.97;1.55;;;;;;;;;;5069704;28;20052;-90
2023/07/31 13:25:58;;;;;;;3.95;1.90;;;;;;;;;;5053379;28;20021;-93
2023/07/31 13:28:24;;;;;;;3.28;1.80;;;;;;;;;;5072530;28;20086;-89
2023/07/31 13:30:50;;;;;;;3.47;1.80;;;;;;;;;;5054457;28;20571;-93
2023/07/31 13:33:16;;;;;;;5.13;1.67;;;;;;;;;;5057160;28;20086;-86
2023/07/31 13:35:42;;;;;;;3.47;2.05;;;;;;;;;;5055525;28;20027;-91
2023/07/31 13:38:09;;;;;;;2.60;1.60;;;;;;;;;;5075927;28;20020;-91
2023/07/31 13:40:37;;;;;;;3.03;1.88;;;;;;;;;;5055604;28;20119;-88
2023/07/31 13:43:03;;;;;;;3.92;1.60;;;;;;;;;;5070190;28;20075;-90
2023/07/31 13:45:29;;;;;;;4.93;2.45;;;;;;;;;;5071306;28;20017;-86
2023/07/31 13:47:56;;;;;;;6.93;1.70;;;;;;;;;;5073518;28;20028;-88
2023/07/31 13:50:25;;;;;;;3.67;1.75;;;;;;;;;;5069957;28;20066;-91
2023/07/31 13:52:51;;;;;;;2.78;1.30;;;;;;;;;;5055586;28;20051;-88
2023/07/31 13:55:16;;;;;;;2.28;1.60;;;;;;;;;;5053927;28;20433;-87
2023/07/31 13:57:43;;;;;;;2.22;1.63;;;;;;;;;;5068913;28;20082;-88
2023/07/31 14:00:09;;;;;;;2.72;1.75;;;;;;;;;;5072809;28;20174;-88
2023/07/31 14:02:35;;;;;;;2.40;1.50;;;;;;;;;;5058510;28;20028;-91
2023/07/31 14:05:01;;;;;;;4.95;1.88;;;;;;;;;;5074811;28;20047;-91
2023/07/31 14:07:28;;;;;;;5.25;1.88;;;;;;;;;;5052760;28;20036;-89
2023/07/31 14:09:54;;;;;;;2.40;1.67;;;;;;;;;;5071921;28;20024;-91
2023/07/31 14:12:23;;;;;;;2.50;1.67;;;;;;;;;;5052512;28;20029;-86
2023/07/31 14:14:49;;;;;;;2.80;1.50;;;;;;;;;;5068640;28;20016;-87
2023/07/31 14:17:16;;;;;;;2.08;1.40;;;;;;;;;;5068203;28;20028;-90
2023/07/31 14:19:42;;;;;;;3.58;2.13;;;;;;;;;;5072013;28;20039;-88
2023/07/31 14:22:08;;;;;;;1.92;1.35;;;;;;;;;;5053092;28;20025;-91
2023/07/31 14:24:34;;;;;;;5.53;1.60;;;;;;;;;;5054427;28;20127;-85
2023/07/31 14:27:00;;;;;;;4.97;1.52;;;;;;;;;;5073972;28;20024;-91
2023/07/31 14:29:30;;;;;;;3.72;2.20;;;;;;;;;;5075359;28;20039;-91
2023/07/31 14:31:56;;;;;;;4.40;1.85;;;;;;;;;;5073518;28;20056;-92
2023/07/31 14:34:22;;;;;;;3.08;1.45;;;;;;;;;;5072524;28;20016;-93
2023/07/31 14:36:48;;;;;;;3.15;2.05;;;;;;;;;;5056110;28;20082;-90
2023/07/31 14:39:14;;;;;;;3.75;2.35;;;;;;;;;;5072317;28;20025;-90